createdAt,value
2018-06-22T00:01:21.751Z,53.80
2018-06-22T00:03:49.591Z,53.35
2018-06-22T00:06:17.484Z,52.62
2018-06-22T00:08:45.401Z,54.30
2018-06-22T00:11:13.291Z,53.75
2018-06-22T00:13:41.110Z,54.32
2018-06-22T00:16:08.954Z,53.62
2018-06-22T00:18:36.718Z,54.21
2018-06-22T00:21:04.562Z,54.23
2018-06-22T00:23:32.436Z,54.22
2018-06-22T00:26:00.277Z,53.77
2018-06-22T00:28:28.229Z,54.03
2018-06-22T00:30:56.105Z,53.72
2018-06-22T00:33:23.991Z,53.39
2018-06-22T00:35:51.886Z,53.58
2018-06-22T00:38:19.757Z,54.30
2018-06-22T00:40:47.584Z,55.21
2018-06-22T00:43:15.467Z,54.35
2018-06-22T00:45:43.309Z,54.32
2018-06-22T00:48:11.189Z,54.37
2018-06-22T00:50:38.989Z,54.15
2018-06-22T00:53:24.161Z,55.52
2018-06-22T00:55:52.012Z,55.65
2018-06-22T00:58:19.781Z,55.67
2018-06-22T01:00:47.717Z,54.83
2018-06-22T01:03:15.626Z,55.43
2018-06-22T01:05:43.528Z,55.39
2018-06-22T01:08:11.477Z,56.28
2018-06-22T01:10:39.325Z,55.69
2018-06-22T01:13:07.377Z,55.65
2018-06-22T01:15:35.568Z,56.48
2018-06-22T01:18:03.449Z,56.49
2018-06-22T01:20:31.414Z,57.19
2018-06-22T01:22:59.297Z,56.92
2018-06-22T01:25:27.164Z,57.01
2018-06-22T01:27:55.000Z,57.04
2018-06-22T01:30:22.867Z,57.08
2018-06-22T01:32:50.677Z,56.68
2018-06-22T01:35:18.541Z,57.65
2018-06-22T01:37:46.370Z,57.05
2018-06-22T01:40:14.261Z,56.03
2018-06-22T01:42:42.140Z,57.52
2018-06-22T01:45:09.985Z,57.25
2018-06-22T01:47:37.905Z,57.04
2018-06-22T01:50:06.046Z,57.80
2018-06-22T01:52:33.886Z,56.84
2018-06-22T01:55:01.914Z,57.61
2018-06-22T01:57:29.865Z,57.94
2018-06-22T01:59:57.877Z,57.71
2018-06-22T02:02:29.100Z,56.22
2018-06-22T02:04:56.985Z,58.03
2018-06-22T02:07:24.890Z,58.52
2018-06-22T02:09:52.717Z,58.44
2018-06-22T02:12:20.649Z,58.86
2018-06-22T02:14:48.620Z,58.38
2018-06-22T02:17:16.531Z,58.48
2018-06-22T02:19:44.408Z,57.47
2018-06-22T02:22:12.238Z,57.55
2018-06-22T02:24:40.093Z,58.90
2018-06-22T02:27:08.053Z,59.46
2018-06-22T02:29:35.888Z,58.10
2018-06-22T02:32:03.853Z,58.38
2018-06-22T02:34:31.747Z,58.63
2018-06-22T02:36:59.643Z,58.39
2018-06-22T02:39:27.524Z,58.04
2018-06-22T02:41:55.448Z,57.61
2018-06-22T02:44:23.369Z,57.86
2018-06-22T02:46:51.264Z,58.91
2018-06-22T02:49:19.130Z,58.56
2018-06-22T02:51:46.973Z,58.13
2018-06-22T02:54:14.848Z,58.31
2018-06-22T02:56:42.743Z,57.52
2018-06-22T02:59:10.673Z,58.17
2018-06-22T03:01:38.527Z,58.38
2018-06-22T03:04:06.540Z,57.81
2018-06-22T03:06:34.468Z,57.61
2018-06-22T03:09:02.436Z,57.62
2018-06-22T03:11:30.369Z,59.27
2018-06-22T03:13:58.265Z,59.05
2018-06-22T03:16:26.145Z,58.53
2018-06-22T03:18:54.316Z,59.79
2018-06-22T03:21:22.169Z,60.16
2018-06-22T03:23:50.104Z,59.53
2018-06-22T03:26:17.981Z,59.02
2018-06-22T03:28:45.836Z,60.04
2018-06-22T03:31:14.091Z,59.21
2018-06-22T03:33:41.958Z,58.42
2018-06-22T03:36:09.801Z,60.29
2018-06-22T03:38:37.662Z,58.49
2018-06-22T03:41:05.513Z,59.87
2018-06-22T03:43:33.445Z,59.28
2018-06-22T03:46:01.333Z,58.78
2018-06-22T03:48:29.290Z,59.49
2018-06-22T03:50:57.089Z,59.39
2018-06-22T03:53:24.965Z,59.37
2018-06-22T03:55:52.842Z,59.37
2018-06-22T03:58:20.781Z,59.41
2018-06-22T04:00:48.692Z,59.37
2018-06-22T04:03:16.577Z,59.50
2018-06-22T04:05:44.569Z,59.72
2018-06-22T04:08:12.612Z,60.70
2018-06-22T04:10:40.930Z,59.96
2018-06-22T04:13:08.838Z,59.49
2018-06-22T04:15:36.796Z,60.23
2018-06-22T04:18:04.993Z,59.20
2018-06-22T04:20:32.842Z,60.39
2018-06-22T04:23:00.712Z,60.21
2018-06-22T04:25:28.573Z,59.14
2018-06-22T04:27:56.474Z,59.07
2018-06-22T04:30:24.433Z,59.39
2018-06-22T04:32:52.225Z,59.94
2018-06-22T04:35:20.057Z,59.45
2018-06-22T04:37:48.018Z,58.88
2018-06-22T04:40:15.973Z,59.02
2018-06-22T04:42:43.833Z,59.10
2018-06-22T04:45:11.742Z,59.53
2018-06-22T04:47:39.613Z,58.53
2018-06-22T04:50:07.458Z,57.81
2018-06-22T04:52:35.362Z,57.38
2018-06-22T04:55:03.295Z,55.97
2018-06-22T04:57:31.164Z,55.05
2018-06-22T04:59:59.019Z,52.54
2018-06-22T05:02:26.918Z,52.06
2018-06-22T05:04:55.691Z,49.40
2018-06-22T05:07:24.484Z,47.14
2018-06-22T05:09:52.393Z,44.96
2018-06-22T05:12:20.262Z,42.42
2018-06-22T05:14:48.822Z,42.61
2018-06-22T05:17:17.209Z,42.52
2018-06-22T05:19:45.101Z,43.49
2018-06-22T05:22:13.028Z,43.30
2018-06-22T05:24:40.964Z,42.52
2018-06-22T05:27:08.881Z,41.42
2018-06-22T05:29:36.713Z,42.01
2018-06-22T05:32:08.351Z,40.23
2018-06-22T05:34:36.342Z,39.33
2018-06-22T05:37:04.698Z,38.06
2018-06-22T05:39:32.602Z,36.21
2018-06-22T05:42:00.462Z,34.96
2018-06-22T05:44:28.278Z,33.73
2018-06-22T05:46:56.340Z,34.19
2018-06-22T05:49:24.240Z,34.61
2018-06-22T05:51:52.141Z,33.77
2018-06-22T05:54:20.078Z,34.97
2018-06-22T05:56:48.098Z,36.05
2018-06-22T05:59:15.921Z,36.26
2018-06-22T06:01:43.740Z,36.59
2018-06-22T06:04:11.675Z,37.71
2018-06-22T06:06:39.483Z,38.50
2018-06-22T06:09:08.401Z,38.88
2018-06-22T06:11:36.421Z,39.06
2018-06-22T06:14:04.398Z,39.41
2018-06-22T06:16:32.296Z,40.82
2018-06-22T06:19:00.207Z,41.10
2018-06-22T06:21:28.126Z,40.98
2018-06-22T06:23:56.053Z,42.39
2018-06-22T06:26:24.249Z,42.89
2018-06-22T06:28:52.140Z,42.61
2018-06-22T06:31:19.999Z,42.84
2018-06-22T06:33:47.859Z,43.25
2018-06-22T06:36:15.791Z,43.46
2018-06-22T06:38:43.700Z,43.82
2018-06-22T06:41:11.570Z,43.59
2018-06-22T06:43:39.405Z,43.79
2018-06-22T06:46:07.233Z,43.98
2018-06-22T06:48:35.080Z,43.52
2018-06-22T06:56:57.811Z,43.21
2018-06-22T06:59:25.748Z,43.26
2018-06-22T07:01:53.889Z,43.45
2018-06-22T07:04:21.857Z,42.61
2018-06-22T07:06:49.792Z,42.76
2018-06-22T07:09:17.665Z,43.38
2018-06-22T07:11:45.577Z,43.13
2018-06-22T07:14:13.586Z,42.91
2018-06-22T07:16:41.449Z,43.30
2018-06-22T07:19:09.285Z,43.27
2018-06-22T07:21:37.237Z,43.23
2018-06-22T07:24:05.161Z,43.11
2018-06-22T07:26:33.016Z,43.63
2018-06-22T07:29:00.888Z,43.64
2018-06-22T07:31:28.797Z,43.31
2018-06-22T07:33:56.681Z,43.60
2018-06-22T07:36:24.567Z,43.95
2018-06-22T07:38:52.443Z,43.82
2018-06-22T07:41:20.333Z,44.15
2018-06-22T07:43:48.178Z,43.88
2018-06-22T07:46:16.149Z,44.22
2018-06-22T07:48:44.119Z,44.06
2018-06-22T07:51:11.953Z,44.01
2018-06-22T07:53:39.837Z,43.96
2018-06-22T07:56:07.795Z,44.23
2018-06-22T07:58:35.663Z,44.20
2018-06-22T08:01:03.525Z,44.28
2018-06-22T08:03:31.425Z,44.40
2018-06-22T08:05:59.285Z,44.14
2018-06-22T08:08:27.117Z,44.28
2018-06-22T08:10:55.089Z,44.18
2018-06-22T08:13:22.961Z,44.40
2018-06-22T08:15:50.829Z,44.40
2018-06-22T08:18:18.677Z,44.46
2018-06-22T08:20:46.585Z,44.13
2018-06-22T08:23:14.478Z,44.33
2018-06-22T08:25:42.342Z,44.47
2018-06-22T08:28:10.205Z,45.11
2018-06-22T08:30:38.058Z,44.84
2018-06-22T08:33:05.962Z,45.23
2018-06-22T08:35:33.896Z,45.05
2018-06-22T08:38:01.872Z,45.29
2018-06-22T08:40:29.806Z,45.13
2018-06-22T08:42:58.597Z,45.29
2018-06-22T08:45:26.569Z,45.55
2018-06-22T08:47:54.584Z,45.90
2018-06-22T08:50:22.641Z,45.43
2018-06-22T08:52:50.477Z,45.79
2018-06-22T08:55:18.382Z,46.49
2018-06-22T08:57:46.245Z,46.06
2018-06-22T09:00:14.177Z,46.52
2018-06-22T09:02:42.025Z,46.21
2018-06-22T09:05:09.961Z,46.32
2018-06-22T09:07:37.826Z,46.41
2018-06-22T09:10:05.678Z,45.72
2018-06-22T09:12:33.592Z,46.46
2018-06-22T09:15:01.527Z,45.79
2018-06-22T09:17:29.755Z,45.52
2018-06-22T09:19:58.218Z,45.32
2018-06-22T09:22:26.429Z,45.65
2018-06-22T09:24:54.492Z,45.51
2018-06-22T09:27:23.105Z,45.12
2018-06-22T09:29:51.064Z,45.03
2018-06-22T09:32:18.977Z,45.49
2018-06-22T09:34:46.849Z,44.71
2018-06-22T09:37:14.770Z,45.24
2018-06-22T09:39:42.632Z,45.06
2018-06-22T09:42:10.533Z,44.51
2018-06-22T09:44:39.577Z,44.07
2018-06-22T09:47:08.026Z,44.41
2018-06-22T09:49:35.957Z,44.14
2018-06-22T09:52:03.829Z,43.68
2018-06-22T09:54:31.710Z,43.91
2018-06-22T09:56:59.626Z,43.93
2018-06-22T09:59:27.543Z,44.06
2018-06-22T10:01:55.606Z,44.38
2018-06-22T10:04:24.085Z,44.53
2018-06-22T10:06:52.389Z,43.90
2018-06-22T10:09:20.319Z,43.71
2018-06-22T10:11:48.310Z,43.85
2018-06-22T10:14:16.201Z,43.96
2018-06-22T10:16:44.075Z,43.91
2018-06-22T10:19:11.922Z,43.92
2018-06-22T10:21:39.929Z,43.99
2018-06-22T10:24:07.864Z,44.09
2018-06-22T10:26:35.723Z,44.45
2018-06-22T10:29:03.609Z,44.59
2018-06-22T10:31:31.539Z,44.13
2018-06-22T10:33:59.415Z,44.27
2018-06-22T10:36:27.229Z,44.38
2018-06-22T10:38:55.166Z,44.31
2018-06-22T10:41:23.090Z,44.46
2018-06-22T10:43:51.069Z,44.10
2018-06-22T10:46:19.010Z,43.83
2018-06-22T10:48:47.369Z,43.77
2018-06-22T10:51:15.273Z,43.36
2018-06-22T10:53:43.207Z,42.97
2018-06-22T10:56:11.257Z,42.89
2018-06-22T10:58:39.157Z,42.70
2018-06-22T11:01:07.049Z,42.08
2018-06-22T11:03:35.013Z,41.86
2018-06-22T11:06:02.957Z,41.59
2018-06-22T11:08:30.840Z,42.17
2018-06-22T11:10:58.774Z,42.04
2018-06-22T11:13:27.526Z,41.36
2018-06-22T11:15:55.404Z,38.77
2018-06-22T11:18:23.372Z,39.03
2018-06-22T11:20:51.261Z,37.74
2018-06-22T11:23:19.125Z,38.26
2018-06-22T11:25:47.021Z,38.66
2018-06-22T11:28:14.906Z,37.75
2018-06-22T11:30:42.855Z,38.29
2018-06-22T11:33:10.737Z,38.08
2018-06-22T11:35:38.691Z,38.28
2018-06-22T11:38:06.536Z,38.57
2018-06-22T11:40:34.422Z,38.24
2018-06-22T11:43:02.345Z,38.37
2018-06-22T11:45:30.208Z,36.76
2018-06-22T11:47:58.122Z,36.28
2018-06-22T11:50:26.019Z,37.24
2018-06-22T11:52:53.893Z,36.37
2018-06-22T11:55:21.852Z,36.09
2018-06-22T11:57:49.756Z,36.48
2018-06-22T12:00:17.636Z,38.21
2018-06-22T12:02:45.487Z,36.20
2018-06-22T12:05:13.350Z,36.61
2018-06-22T12:07:41.257Z,36.89
2018-06-22T12:10:09.116Z,37.20
2018-06-22T12:12:37.090Z,36.68
2018-06-22T12:15:05.145Z,35.25
2018-06-22T12:17:32.973Z,35.21
2018-06-22T12:20:00.889Z,34.55
2018-06-22T12:22:28.706Z,34.75
2018-06-22T12:24:56.577Z,33.97
2018-06-22T12:27:24.469Z,34.30
2018-06-22T12:29:52.318Z,33.78
2018-06-22T12:32:20.152Z,33.97
2018-06-22T12:34:47.994Z,35.01
2018-06-22T12:39:43.357Z,34.48
2018-06-22T12:42:11.260Z,34.55
2018-06-22T12:47:06.523Z,33.59
2018-06-22T12:49:34.409Z,33.28
2018-06-22T12:52:02.385Z,33.73
2018-06-22T12:54:30.285Z,33.42
2018-06-22T12:56:58.177Z,33.99
2018-06-22T12:59:26.038Z,33.75
2018-06-22T13:01:54.095Z,33.96
2018-06-22T13:04:21.925Z,33.67
2018-06-22T13:06:49.826Z,33.93
2018-06-22T13:09:17.709Z,34.15
2018-06-22T13:11:45.505Z,34.54
2018-06-22T13:14:13.401Z,35.10
2018-06-22T13:16:41.298Z,33.31
2018-06-22T13:19:09.189Z,34.51
2018-06-22T13:21:51.822Z,34.68
2018-06-22T13:24:20.955Z,34.26
2018-06-22T13:26:48.989Z,32.68
2018-06-22T13:29:16.913Z,32.42
2018-06-22T13:31:45.089Z,32.30
2018-06-22T13:34:14.256Z,33.14
2018-06-22T13:36:42.307Z,32.94
2018-06-22T13:39:13.255Z,33.37
2018-06-22T13:41:41.582Z,33.00
2018-06-22T13:44:09.789Z,33.17
2018-06-22T13:46:38.842Z,32.58
2018-06-22T13:49:07.551Z,32.59
2018-06-22T13:51:36.174Z,33.62
2018-06-22T13:54:04.274Z,34.29
2018-06-22T13:56:33.001Z,34.68
2018-06-22T13:59:01.277Z,33.94
2018-06-22T14:01:29.573Z,34.49
2018-06-22T14:04:03.211Z,34.62
2018-06-22T14:06:36.841Z,34.52
2018-06-22T14:09:07.180Z,34.50
2018-06-22T14:11:35.060Z,34.61
2018-06-22T14:14:03.359Z,33.91
2018-06-22T14:16:31.311Z,33.13
2018-06-22T14:18:59.235Z,32.84
2018-06-22T14:21:27.215Z,33.41
2018-06-22T14:23:55.099Z,32.98
2018-06-22T14:26:23.062Z,32.49
2018-06-22T14:28:50.895Z,32.37
2018-06-22T14:31:18.827Z,31.63
2018-06-22T14:33:46.770Z,31.96
2018-06-22T14:36:14.638Z,32.28
2018-06-22T14:38:42.537Z,32.36
2018-06-22T14:41:10.553Z,32.45
2018-06-22T14:43:38.488Z,31.80
2018-06-22T14:46:06.504Z,30.96
2018-06-22T14:48:35.591Z,31.27
2018-06-22T14:51:03.616Z,31.32
2018-06-22T14:53:37.327Z,31.34
2018-06-22T14:56:12.140Z,31.83
2018-06-22T14:58:45.874Z,31.74
2018-06-22T15:01:19.448Z,32.60
2018-06-22T15:03:53.973Z,32.53
2018-06-22T15:06:27.809Z,32.68
2018-06-22T15:08:55.728Z,32.79
2018-06-22T15:11:23.665Z,33.14
2018-06-22T15:13:51.594Z,33.16
2018-06-22T15:16:19.554Z,33.15
2018-06-22T15:18:47.813Z,34.06
2018-06-22T15:21:15.698Z,34.32
2018-06-22T15:23:43.666Z,34.60
2018-06-22T15:26:11.689Z,34.69
2018-06-22T15:28:39.640Z,34.06
2018-06-22T15:31:07.601Z,34.22
2018-06-22T15:33:41.226Z,34.76
2018-06-22T15:36:14.889Z,34.02
2018-06-22T15:38:48.723Z,34.78
2018-06-22T15:41:22.247Z,34.63
2018-06-22T15:43:56.075Z,34.47
2018-06-22T15:46:29.633Z,34.63
2018-06-22T15:49:03.208Z,34.41
2018-06-22T15:51:37.021Z,34.36
2018-06-22T15:54:10.883Z,34.64
2018-06-22T15:56:38.770Z,34.67
2018-06-22T15:59:06.721Z,34.62
2018-06-22T16:01:34.641Z,35.05
2018-06-22T16:04:07.092Z,34.80
2018-06-22T16:06:35.051Z,35.13
2018-06-22T16:09:04.686Z,34.89
2018-06-22T16:11:32.610Z,34.59
2018-06-22T16:14:06.203Z,35.37
2018-06-22T16:16:39.862Z,34.98
2018-06-22T16:19:15.811Z,34.92
2018-06-22T16:21:49.530Z,35.35
2018-06-22T16:24:23.070Z,35.01
2018-06-22T16:26:56.617Z,34.96
2018-06-22T16:29:24.692Z,35.54
2018-06-22T16:31:52.739Z,35.34
2018-06-22T16:34:20.669Z,35.98
2018-06-22T16:36:48.642Z,36.33
2018-06-22T16:39:16.596Z,36.31
2018-06-22T16:41:44.614Z,36.44
2018-06-22T16:44:12.484Z,36.52
2018-06-22T16:46:40.406Z,36.89
2018-06-22T16:49:08.402Z,36.97
2018-06-22T16:51:36.334Z,37.05
2018-06-22T16:54:04.465Z,36.92
2018-06-22T16:56:32.393Z,38.12
2018-06-22T16:59:01.417Z,37.64
2018-06-22T17:01:29.648Z,37.92
2018-06-22T17:03:57.548Z,37.74
2018-06-22T17:06:25.595Z,38.00
2018-06-22T17:08:59.259Z,37.04
2018-06-22T17:11:32.724Z,37.76
2018-06-22T17:14:06.551Z,38.21
2018-06-22T17:16:40.242Z,37.25
2018-06-22T17:19:08.307Z,37.87
2018-06-22T17:21:36.190Z,37.71
2018-06-22T17:24:04.057Z,37.08
2018-06-22T17:26:31.948Z,36.91
2018-06-22T17:28:59.869Z,37.47
2018-06-22T17:31:27.773Z,37.09
2018-06-22T17:33:56.205Z,37.59
2018-06-22T17:36:24.105Z,37.91
2018-06-22T17:38:52.024Z,38.41
2018-06-22T17:41:20.008Z,37.67
2018-06-22T17:43:47.887Z,38.69
2018-06-22T17:46:15.848Z,38.70
2018-06-22T17:48:43.759Z,39.29
2018-06-22T17:51:11.680Z,39.52
2018-06-22T17:53:39.632Z,39.28
2018-06-22T17:56:07.540Z,40.34
2018-06-22T17:58:35.551Z,40.43
2018-06-22T18:01:09.229Z,41.02
2018-06-22T18:03:42.749Z,41.05
2018-06-22T18:06:16.405Z,41.20
2018-06-22T18:08:46.772Z,41.26
2018-06-22T18:11:20.485Z,40.83
2018-06-22T18:13:48.337Z,41.89
2018-06-22T18:16:16.315Z,42.10
2018-06-22T18:18:44.214Z,42.20
2018-06-22T18:21:12.081Z,41.91
2018-06-22T18:23:40.076Z,42.13
2018-06-22T18:26:08.038Z,41.97
2018-06-22T18:28:35.957Z,42.03
2018-06-22T18:31:03.882Z,41.98
2018-06-22T18:33:31.842Z,42.09
2018-06-22T18:35:59.797Z,41.99
2018-06-22T18:38:27.717Z,42.00
2018-06-22T18:40:55.657Z,42.00
2018-06-22T18:43:29.377Z,42.06
2018-06-22T18:45:57.348Z,42.49
2018-06-22T18:48:25.196Z,42.31
2018-06-22T18:50:53.092Z,41.95
2018-06-22T18:53:26.783Z,43.17
2018-06-22T18:56:00.343Z,43.39
2018-06-22T18:58:33.958Z,42.93
2018-06-22T19:02:11.105Z,43.19
2018-06-22T19:04:39.007Z,43.11
2018-06-22T19:07:06.884Z,43.60
2018-06-22T19:09:34.797Z,43.22
2018-06-22T19:12:02.804Z,43.98
2018-06-22T19:14:30.714Z,43.55
2018-06-22T19:16:58.568Z,43.46
2018-06-22T19:19:26.411Z,44.64
2018-06-22T19:21:54.313Z,44.42
2018-06-22T19:24:22.160Z,46.57
2018-06-22T19:26:50.186Z,45.70
2018-06-22T19:29:18.046Z,45.70
2018-06-22T19:31:45.946Z,45.59
2018-06-22T19:34:13.797Z,46.42
2018-06-22T19:36:41.710Z,46.25
2018-06-22T19:39:10.506Z,46.40
2018-06-22T19:41:38.561Z,46.86
2018-06-22T19:44:12.229Z,46.46
2018-06-22T19:46:45.721Z,47.03
2018-06-22T19:49:19.224Z,46.72
2018-06-22T19:51:52.812Z,46.56
2018-06-22T19:54:20.806Z,47.86
2018-06-22T19:56:48.829Z,47.48
2018-06-22T19:59:16.821Z,48.26
2018-06-22T20:01:44.664Z,47.26
2018-06-22T20:04:16.401Z,47.61
2018-06-22T20:06:44.281Z,46.93
2018-06-22T20:09:12.462Z,47.48
2018-06-22T20:11:40.336Z,47.48
2018-06-22T20:14:08.221Z,47.76
2018-06-22T20:16:36.102Z,47.67
2018-06-22T20:19:06.447Z,47.47
2018-06-22T20:21:37.258Z,49.47
2018-06-22T20:24:06.201Z,49.01
2018-06-22T20:26:34.129Z,48.12
2018-06-22T20:29:02.936Z,48.61
2018-06-22T20:31:37.468Z,48.27
2018-06-22T20:34:11.072Z,49.27
2018-06-22T20:36:44.777Z,49.27
2018-06-22T20:39:18.560Z,49.56
2018-06-22T20:41:51.928Z,49.21
2018-06-22T20:44:25.677Z,48.85
2018-06-22T20:47:00.623Z,49.59
2018-06-22T20:49:39.330Z,50.10
2018-06-22T20:52:08.041Z,50.15
2018-06-22T20:54:36.032Z,50.30
2018-06-22T20:57:04.009Z,52.17
2018-06-22T20:59:32.018Z,51.37
2018-06-22T21:01:59.955Z,51.00
2018-06-22T21:04:27.902Z,50.48
2018-06-22T21:06:55.761Z,51.77
2018-06-22T21:09:23.797Z,51.26
2018-06-22T21:11:51.673Z,51.58
2018-06-22T21:14:19.693Z,51.95
2018-06-22T21:16:47.699Z,53.17
2018-06-22T21:19:15.656Z,52.31
2018-06-22T21:21:49.205Z,52.30
2018-06-22T21:24:17.793Z,53.51
2018-06-22T21:26:49.547Z,53.92
2018-06-22T21:29:24.258Z,53.81
2018-06-22T21:32:03.125Z,52.31
2018-06-22T21:34:33.770Z,53.24
2018-06-22T21:37:08.280Z,52.75
2018-06-22T21:39:40.666Z,52.03
2018-06-22T21:42:09.395Z,52.93
2018-06-22T21:44:48.891Z,52.54
2018-06-22T21:47:16.941Z,53.25
2018-06-22T21:49:44.777Z,54.12
2018-06-22T21:52:15.756Z,55.44
2018-06-22T21:54:44.578Z,53.01
2018-06-22T21:57:12.559Z,55.16
2018-06-22T21:59:40.492Z,53.21
2018-06-22T22:02:08.441Z,56.10
2018-06-22T22:04:36.321Z,54.48
2018-06-22T22:07:04.239Z,54.91
2018-06-22T22:09:37.961Z,56.33
2018-06-22T22:12:07.112Z,54.06
2018-06-22T22:14:35.027Z,54.99
2018-06-22T22:17:02.964Z,55.47
2018-06-22T22:19:30.812Z,56.25
2018-06-22T22:21:58.842Z,56.54
2018-06-22T22:24:27.343Z,56.46
2018-06-22T22:26:55.278Z,55.38
2018-06-22T22:29:23.178Z,56.14
2018-06-22T22:31:50.975Z,56.35
2018-06-22T22:34:18.877Z,58.84
2018-06-22T22:36:46.727Z,55.22
2018-06-22T22:39:14.651Z,59.71
2018-06-22T22:41:42.553Z,55.99
2018-06-22T22:44:10.491Z,55.73
2018-06-22T22:46:38.810Z,56.06
2018-06-22T22:49:06.897Z,56.29
2018-06-22T22:51:34.924Z,55.30
2018-06-22T22:54:04.945Z,59.46
2018-06-22T22:56:32.801Z,57.40
2018-06-22T22:59:05.965Z,55.65
2018-06-22T23:01:39.918Z,57.39
2018-06-22T23:04:09.811Z,57.45
2018-06-22T23:06:44.750Z,58.36
2018-06-22T23:09:13.110Z,59.35
2018-06-22T23:11:41.061Z,58.28
2018-06-22T23:14:08.982Z,57.84
2018-06-22T23:16:36.945Z,58.27
2018-06-22T23:19:04.893Z,59.11
2018-06-22T23:21:32.738Z,58.51
2018-06-22T23:24:00.666Z,59.09
2018-06-22T23:26:28.567Z,58.14
2018-06-22T23:28:56.496Z,58.02
2018-06-22T23:31:24.401Z,59.21
2018-06-22T23:33:52.305Z,59.02
2018-06-22T23:36:20.186Z,61.15
2018-06-22T23:38:48.066Z,60.69
2018-06-22T23:41:15.988Z,61.04
2018-06-22T23:43:43.845Z,60.25
2018-06-22T23:46:11.835Z,59.64
2018-06-22T23:48:39.828Z,59.69
2018-06-22T23:51:07.852Z,59.28
2018-06-22T23:53:35.830Z,60.17
2018-06-22T23:56:03.758Z,58.98
2018-06-22T23:58:31.694Z,60.49
